sensor_id;sensor_type;location;lat;lon;timestamp;temperature;humidity
68485;DHT22;55472;50.060;21.960;2024-02-14T00:01:56;3.50;97.10
68485;DHT22;55472;50.060;21.960;2024-02-14T00:04:22;3.50;97.10
68485;DHT22;55472;50.060;21.960;2024-02-14T00:06:48;3.50;97.00
68485;DHT22;55472;50.060;21.960;2024-02-14T00:09:14;3.50;97.10
68485;DHT22;55472;50.060;21.960;2024-02-14T00:11:41;3.50;97.10
68485;DHT22;55472;50.060;21.960;2024-02-14T00:14:07;3.50;96.80
68485;DHT22;55472;50.060;21.960;2024-02-14T00:16:33;3.50;97.00
68485;DHT22;55472;50.060;21.960;2024-02-14T00:18:59;3.50;96.70
68485;DHT22;55472;50.060;21.960;2024-02-14T00:21:26;3.50;96.90
68485;DHT22;55472;50.060;21.960;2024-02-14T00:23:52;3.50;97.00
68485;DHT22;55472;50.060;21.960;2024-02-14T00:26:18;3.50;96.90
68485;DHT22;55472;50.060;21.960;2024-02-14T00:28:44;3.50;96.50
68485;DHT22;55472;50.060;21.960;2024-02-14T00:31:10;3.50;96.40
68485;DHT22;55472;50.060;21.960;2024-02-14T00:33:36;3.50;96.40
68485;DHT22;55472;50.060;21.960;2024-02-14T00:36:03;3.50;96.80
68485;DHT22;55472;50.060;21.960;2024-02-14T00:38:29;3.50;97.10
68485;DHT22;55472;50.060;21.960;2024-02-14T00:40:55;3.50;97.40
68485;DHT22;55472;50.060;21.960;2024-02-14T00:43:21;3.50;97.50
68485;DHT22;55472;50.060;21.960;2024-02-14T00:45:47;3.50;97.60
68485;DHT22;55472;50.060;21.960;2024-02-14T00:48:13;3.60;97.90
68485;DHT22;55472;50.060;21.960;2024-02-14T00:50:39;3.50;98.10
68485;DHT22;55472;50.060;21.960;2024-02-14T00:53:05;3.50;98.40
68485;DHT22;55472;50.060;21.960;2024-02-14T00:55:32;3.60;98.50
68485;DHT22;55472;50.060;21.960;2024-02-14T00:57:58;3.60;98.70
68485;DHT22;55472;50.060;21.960;2024-02-14T01:00:24;3.50;98.80
68485;DHT22;55472;50.060;21.960;2024-02-14T01:02:51;3.60;98.70
68485;DHT22;55472;50.060;21.960;2024-02-14T01:05:17;3.60;98.80
68485;DHT22;55472;50.060;21.960;2024-02-14T01:07:43;3.60;98.90
68485;DHT22;55472;50.060;21.960;2024-02-14T01:10:09;3.60;99.00
68485;DHT22;55472;50.060;21.960;2024-02-14T01:12:35;3.60;99.00
68485;DHT22;55472;50.060;21.960;2024-02-14T01:15:02;3.60;99.40
68485;DHT22;55472;50.060;21.960;2024-02-14T01:17:28;3.60;99.40
68485;DHT22;55472;50.060;21.960;2024-02-14T01:19:54;3.60;99.20
68485;DHT22;55472;50.060;21.960;2024-02-14T01:22:20;3.60;99.20
68485;DHT22;55472;50.060;21.960;2024-02-14T01:24:47;3.60;99.20
68485;DHT22;55472;50.060;21.960;2024-02-14T01:27:13;3.60;99.10
68485;DHT22;55472;50.060;21.960;2024-02-14T01:29:39;3.60;99.00
68485;DHT22;55472;50.060;21.960;2024-02-14T01:32:05;3.60;98.70
68485;DHT22;55472;50.060;21.960;2024-02-14T01:34:32;3.60;98.70
68485;DHT22;55472;50.060;21.960;2024-02-14T01:36:58;3.50;98.70
68485;DHT22;55472;50.060;21.960;2024-02-14T01:39:25;3.60;98.30
68485;DHT22;55472;50.060;21.960;2024-02-14T01:41:51;3.50;98.00
68485;DHT22;55472;50.060;21.960;2024-02-14T01:44:17;3.50;97.60
68485;DHT22;55472;50.060;21.960;2024-02-14T01:46:44;3.50;97.40
68485;DHT22;55472;50.060;21.960;2024-02-14T01:49:11;3.50;96.70
68485;DHT22;55472;50.060;21.960;2024-02-14T01:51:42;3.50;96.30
68485;DHT22;55472;50.060;21.960;2024-02-14T01:54:12;3.60;95.90
68485;DHT22;55472;50.060;21.960;2024-02-14T01:56:39;3.50;95.70
68485;DHT22;55472;50.060;21.960;2024-02-14T01:59:06;3.50;95.00
68485;DHT22;55472;50.060;21.960;2024-02-14T02:04:08;3.50;94.90
68485;DHT22;55472;50.060;21.960;2024-02-14T02:06:35;3.50;94.30
68485;DHT22;55472;50.060;21.960;2024-02-14T02:09:01;3.50;94.30
68485;DHT22;55472;50.060;21.960;2024-02-14T02:11:27;3.50;94.30
68485;DHT22;55472;50.060;21.960;2024-02-14T02:13:53;3.50;94.10
68485;DHT22;55472;50.060;21.960;2024-02-14T02:16:21;3.50;94.30
68485;DHT22;55472;50.060;21.960;2024-02-14T02:18:47;3.50;94.00
68485;DHT22;55472;50.060;21.960;2024-02-14T02:21:14;3.50;93.60
68485;DHT22;55472;50.060;21.960;2024-02-14T02:23:40;3.50;93.90
68485;DHT22;55472;50.060;21.960;2024-02-14T02:26:10;3.50;93.90
68485;DHT22;55472;50.060;21.960;2024-02-14T02:28:37;3.50;93.80
68485;DHT22;55472;50.060;21.960;2024-02-14T02:31:05;3.50;94.10
68485;DHT22;55472;50.060;21.960;2024-02-14T02:33:31;3.50;94.00
68485;DHT22;55472;50.060;21.960;2024-02-14T02:35:57;3.50;93.70
68485;DHT22;55472;50.060;21.960;2024-02-14T02:38:23;3.50;93.60
68485;DHT22;55472;50.060;21.960;2024-02-14T02:40:49;3.40;93.60
68485;DHT22;55472;50.060;21.960;2024-02-14T02:43:15;3.40;93.50
68485;DHT22;55472;50.060;21.960;2024-02-14T02:45:42;3.40;93.30
68485;DHT22;55472;50.060;21.960;2024-02-14T02:48:08;3.40;93.40
68485;DHT22;55472;50.060;21.960;2024-02-14T02:50:34;3.40;93.30
68485;DHT22;55472;50.060;21.960;2024-02-14T02:53:00;3.40;93.30
68485;DHT22;55472;50.060;21.960;2024-02-14T02:55:26;3.40;93.50
68485;DHT22;55472;50.060;21.960;2024-02-14T02:57:52;3.40;93.60
68485;DHT22;55472;50.060;21.960;2024-02-14T03:00:18;3.40;93.70
68485;DHT22;55472;50.060;21.960;2024-02-14T03:02:47;3.40;94.10
68485;DHT22;55472;50.060;21.960;2024-02-14T03:05:13;3.40;94.30
68485;DHT22;55472;50.060;21.960;2024-02-14T03:07:49;3.40;94.40
68485;DHT22;55472;50.060;21.960;2024-02-14T03:10:16;3.40;94.80
68485;DHT22;55472;50.060;21.960;2024-02-14T03:12:49;3.40;94.70
68485;DHT22;55472;50.060;21.960;2024-02-14T03:15:16;3.40;94.70
68485;DHT22;55472;50.060;21.960;2024-02-14T03:17:42;3.40;95.00
68485;DHT22;55472;50.060;21.960;2024-02-14T03:20:09;3.40;95.40
68485;DHT22;55472;50.060;21.960;2024-02-14T03:22:41;3.40;95.40
68485;DHT22;55472;50.060;21.960;2024-02-14T03:25:19;3.40;95.30
68485;DHT22;55472;50.060;21.960;2024-02-14T03:27:49;3.40;95.20
68485;DHT22;55472;50.060;21.960;2024-02-14T03:30:19;3.40;95.20
68485;DHT22;55472;50.060;21.960;2024-02-14T03:32:50;3.40;95.30
68485;DHT22;55472;50.060;21.960;2024-02-14T03:35:16;3.40;95.50
68485;DHT22;55472;50.060;21.960;2024-02-14T03:37:45;3.40;95.60
68485;DHT22;55472;50.060;21.960;2024-02-14T03:40:13;3.40;95.50
68485;DHT22;55472;50.060;21.960;2024-02-14T03:42:39;3.40;95.60
68485;DHT22;55472;50.060;21.960;2024-02-14T03:45:09;3.40;95.40
68485;DHT22;55472;50.060;21.960;2024-02-14T03:47:35;3.40;95.30
68485;DHT22;55472;50.060;21.960;2024-02-14T03:50:06;3.40;95.40
68485;DHT22;55472;50.060;21.960;2024-02-14T03:52:33;3.40;95.50
68485;DHT22;55472;50.060;21.960;2024-02-14T03:54:59;3.40;95.60
68485;DHT22;55472;50.060;21.960;2024-02-14T03:57:26;3.40;95.50
68485;DHT22;55472;50.060;21.960;2024-02-14T03:59:56;3.40;95.30
68485;DHT22;55472;50.060;21.960;2024-02-14T04:02:29;3.40;95.50
68485;DHT22;55472;50.060;21.960;2024-02-14T04:04:55;3.40;95.50
68485;DHT22;55472;50.060;21.960;2024-02-14T04:07:21;3.40;95.70
68485;DHT22;55472;50.060;21.960;2024-02-14T04:09:48;3.40;95.60
68485;DHT22;55472;50.060;21.960;2024-02-14T04:12:14;3.40;95.50
68485;DHT22;55472;50.060;21.960;2024-02-14T04:14:40;3.40;95.70
68485;DHT22;55472;50.060;21.960;2024-02-14T04:17:06;3.40;95.70
68485;DHT22;55472;50.060;21.960;2024-02-14T04:19:33;3.40;95.60
68485;DHT22;55472;50.060;21.960;2024-02-14T04:21:59;3.40;95.70
68485;DHT22;55472;50.060;21.960;2024-02-14T04:24:26;3.40;95.70
68485;DHT22;55472;50.060;21.960;2024-02-14T04:26:53;3.40;95.90
68485;DHT22;55472;50.060;21.960;2024-02-14T04:29:21;3.40;95.80
68485;DHT22;55472;50.060;21.960;2024-02-14T04:31:47;3.40;95.80
68485;DHT22;55472;50.060;21.960;2024-02-14T04:34:14;3.40;95.70
68485;DHT22;55472;50.060;21.960;2024-02-14T04:36:41;3.40;95.80
68485;DHT22;55472;50.060;21.960;2024-02-14T04:39:07;3.40;95.80
68485;DHT22;55472;50.060;21.960;2024-02-14T04:41:34;3.40;95.90
68485;DHT22;55472;50.060;21.960;2024-02-14T04:44:04;3.40;95.90
68485;DHT22;55472;50.060;21.960;2024-02-14T04:46:34;3.40;95.70
68485;DHT22;55472;50.060;21.960;2024-02-14T04:49:01;3.40;95.60
68485;DHT22;55472;50.060;21.960;2024-02-14T04:51:31;3.40;95.70
68485;DHT22;55472;50.060;21.960;2024-02-14T04:53:58;3.40;95.80
68485;DHT22;55472;50.060;21.960;2024-02-14T04:56:25;3.40;95.80
68485;DHT22;55472;50.060;21.960;2024-02-14T04:58:53;3.40;95.80
68485;DHT22;55472;50.060;21.960;2024-02-14T05:01:20;3.40;96.00
68485;DHT22;55472;50.060;21.960;2024-02-14T05:03:47;3.30;96.00
68485;DHT22;55472;50.060;21.960;2024-02-14T05:06:14;3.40;96.00
68485;DHT22;55472;50.060;21.960;2024-02-14T05:08:40;3.30;96.10
68485;DHT22;55472;50.060;21.960;2024-02-14T05:11:06;3.30;96.20
68485;DHT22;55472;50.060;21.960;2024-02-14T05:13:32;3.30;96.20
68485;DHT22;55472;50.060;21.960;2024-02-14T05:16:02;3.30;96.30
68485;DHT22;55472;50.060;21.960;2024-02-14T05:18:29;3.30;96.40
68485;DHT22;55472;50.060;21.960;2024-02-14T05:20:55;3.30;96.30
68485;DHT22;55472;50.060;21.960;2024-02-14T05:23:22;3.30;96.80
68485;DHT22;55472;50.060;21.960;2024-02-14T05:25:48;3.30;96.90
68485;DHT22;55472;50.060;21.960;2024-02-14T05:28:16;3.30;96.80
68485;DHT22;55472;50.060;21.960;2024-02-14T05:30:44;3.30;96.80
68485;DHT22;55472;50.060;21.960;2024-02-14T05:33:11;3.30;97.00
68485;DHT22;55472;50.060;21.960;2024-02-14T05:35:37;3.30;96.90
68485;DHT22;55472;50.060;21.960;2024-02-14T05:38:03;3.30;97.10
68485;DHT22;55472;50.060;21.960;2024-02-14T05:40:33;3.30;96.90
68485;DHT22;55472;50.060;21.960;2024-02-14T05:43:00;3.30;97.00
68485;DHT22;55472;50.060;21.960;2024-02-14T05:45:26;3.30;97.00
68485;DHT22;55472;50.060;21.960;2024-02-14T05:47:53;3.30;97.00
68485;DHT22;55472;50.060;21.960;2024-02-14T05:50:19;3.30;97.30
68485;DHT22;55472;50.060;21.960;2024-02-14T05:52:45;3.30;97.40
68485;DHT22;55472;50.060;21.960;2024-02-14T05:55:11;3.30;97.60
68485;DHT22;55472;50.060;21.960;2024-02-14T05:57:37;3.30;97.70
68485;DHT22;55472;50.060;21.960;2024-02-14T06:00:04;3.30;97.50
68485;DHT22;55472;50.060;21.960;2024-02-14T06:02:31;3.30;97.30
68485;DHT22;55472;50.060;21.960;2024-02-14T06:04:57;3.30;97.30
68485;DHT22;55472;50.060;21.960;2024-02-14T06:07:23;3.30;97.40
68485;DHT22;55472;50.060;21.960;2024-02-14T06:09:49;3.30;97.40
68485;DHT22;55472;50.060;21.960;2024-02-14T06:12:16;3.30;97.40
68485;DHT22;55472;50.060;21.960;2024-02-14T06:14:42;3.30;97.50
68485;DHT22;55472;50.060;21.960;2024-02-14T06:17:08;3.30;97.60
68485;DHT22;55472;50.060;21.960;2024-02-14T06:19:34;3.30;97.60
68485;DHT22;55472;50.060;21.960;2024-02-14T06:22:01;3.30;97.80
68485;DHT22;55472;50.060;21.960;2024-02-14T06:24:27;3.30;97.80
68485;DHT22;55472;50.060;21.960;2024-02-14T06:26:53;3.30;97.90
68485;DHT22;55472;50.060;21.960;2024-02-14T06:29:19;3.40;97.80
68485;DHT22;55472;50.060;21.960;2024-02-14T06:31:46;3.40;97.70
68485;DHT22;55472;50.060;21.960;2024-02-14T06:34:13;3.40;97.80
68485;DHT22;55472;50.060;21.960;2024-02-14T06:36:38;3.40;97.50
68485;DHT22;55472;50.060;21.960;2024-02-14T06:39:07;3.40;97.40
68485;DHT22;55472;50.060;21.960;2024-02-14T06:41:33;3.50;97.50
68485;DHT22;55472;50.060;21.960;2024-02-14T06:43:59;3.50;97.60
68485;DHT22;55472;50.060;21.960;2024-02-14T06:46:25;3.50;97.40
68485;DHT22;55472;50.060;21.960;2024-02-14T06:48:52;3.60;97.30
68485;DHT22;55472;50.060;21.960;2024-02-14T06:51:18;3.60;97.10
68485;DHT22;55472;50.060;21.960;2024-02-14T06:53:46;3.60;97.00
68485;DHT22;55472;50.060;21.960;2024-02-14T06:56:12;3.70;96.90
68485;DHT22;55472;50.060;21.960;2024-02-14T06:58:38;3.70;96.70
68485;DHT22;55472;50.060;21.960;2024-02-14T07:01:04;3.70;96.80
68485;DHT22;55472;50.060;21.960;2024-02-14T07:03:31;3.70;96.70
68485;DHT22;55472;50.060;21.960;2024-02-14T07:05:57;3.70;96.80
68485;DHT22;55472;50.060;21.960;2024-02-14T07:08:23;3.70;96.60
68485;DHT22;55472;50.060;21.960;2024-02-14T07:10:51;3.80;96.90
68485;DHT22;55472;50.060;21.960;2024-02-14T07:13:18;3.80;96.60
68485;DHT22;55472;50.060;21.960;2024-02-14T07:15:44;3.80;96.30
68485;DHT22;55472;50.060;21.960;2024-02-14T07:18:10;3.80;96.50
68485;DHT22;55472;50.060;21.960;2024-02-14T07:20:36;3.80;96.80
68485;DHT22;55472;50.060;21.960;2024-02-14T07:23:02;3.80;96.60
68485;DHT22;55472;50.060;21.960;2024-02-14T07:25:29;3.90;96.80
68485;DHT22;55472;50.060;21.960;2024-02-14T07:27:56;3.90;96.60
68485;DHT22;55472;50.060;21.960;2024-02-14T07:30:22;3.90;96.50
68485;DHT22;55472;50.060;21.960;2024-02-14T07:32:48;3.90;96.40
68485;DHT22;55472;50.060;21.960;2024-02-14T07:35:16;3.90;96.40
68485;DHT22;55472;50.060;21.960;2024-02-14T07:37:43;4.00;96.50
68485;DHT22;55472;50.060;21.960;2024-02-14T07:40:10;4.00;96.50
68485;DHT22;55472;50.060;21.960;2024-02-14T07:42:37;4.00;96.50
68485;DHT22;55472;50.060;21.960;2024-02-14T07:45:03;4.10;96.20
68485;DHT22;55472;50.060;21.960;2024-02-14T07:47:29;4.10;96.10
68485;DHT22;55472;50.060;21.960;2024-02-14T07:49:56;4.10;96.10
68485;DHT22;55472;50.060;21.960;2024-02-14T07:52:23;4.10;96.20
68485;DHT22;55472;50.060;21.960;2024-02-14T07:54:53;4.20;96.10
68485;DHT22;55472;50.060;21.960;2024-02-14T07:57:23;4.20;96.00
68485;DHT22;55472;50.060;21.960;2024-02-14T07:59:51;4.30;95.80
68485;DHT22;55472;50.060;21.960;2024-02-14T08:02:18;4.40;95.90
68485;DHT22;55472;50.060;21.960;2024-02-14T08:04:47;4.50;95.20
68485;DHT22;55472;50.060;21.960;2024-02-14T08:07:13;4.50;95.10
68485;DHT22;55472;50.060;21.960;2024-02-14T08:09:39;4.60;94.70
68485;DHT22;55472;50.060;21.960;2024-02-14T08:12:06;4.60;94.30
68485;DHT22;55472;50.060;21.960;2024-02-14T08:14:32;4.70;93.90
68485;DHT22;55472;50.060;21.960;2024-02-14T08:16:58;4.70;93.70
68485;DHT22;55472;50.060;21.960;2024-02-14T08:19:24;4.80;93.40
68485;DHT22;55472;50.060;21.960;2024-02-14T08:21:50;4.80;93.00
68485;DHT22;55472;50.060;21.960;2024-02-14T08:24:17;4.90;93.00
68485;DHT22;55472;50.060;21.960;2024-02-14T08:26:43;4.90;92.70
68485;DHT22;55472;50.060;21.960;2024-02-14T08:29:09;5.00;92.50
68485;DHT22;55472;50.060;21.960;2024-02-14T08:31:37;5.00;92.30
68485;DHT22;55472;50.060;21.960;2024-02-14T08:34:03;5.10;92.30
68485;DHT22;55472;50.060;21.960;2024-02-14T08:36:29;5.10;91.50
68485;DHT22;55472;50.060;21.960;2024-02-14T08:38:56;5.20;91.40
68485;DHT22;55472;50.060;21.960;2024-02-14T08:41:22;5.20;90.40
68485;DHT22;55472;50.060;21.960;2024-02-14T08:43:49;5.30;90.80
68485;DHT22;55472;50.060;21.960;2024-02-14T08:46:17;5.40;90.90
68485;DHT22;55472;50.060;21.960;2024-02-14T08:48:43;5.40;90.40
68485;DHT22;55472;50.060;21.960;2024-02-14T08:51:13;5.50;90.70
68485;DHT22;55472;50.060;21.960;2024-02-14T08:53:39;5.60;90.50
68485;DHT22;55472;50.060;21.960;2024-02-14T08:56:08;5.70;90.40
68485;DHT22;55472;50.060;21.960;2024-02-14T08:58:35;5.90;89.60
68485;DHT22;55472;50.060;21.960;2024-02-14T09:01:01;6.10;89.60
68485;DHT22;55472;50.060;21.960;2024-02-14T09:03:27;6.30;87.90
68485;DHT22;55472;50.060;21.960;2024-02-14T09:05:53;6.70;86.10
68485;DHT22;55472;50.060;21.960;2024-02-14T09:08:20;6.90;85.20
68485;DHT22;55472;50.060;21.960;2024-02-14T09:10:46;6.90;83.80
68485;DHT22;55472;50.060;21.960;2024-02-14T09:13:12;7.00;83.50
68485;DHT22;55472;50.060;21.960;2024-02-14T09:15:40;6.90;83.10
68485;DHT22;55472;50.060;21.960;2024-02-14T09:18:06;6.90;83.30
68485;DHT22;55472;50.060;21.960;2024-02-14T09:20:32;6.80;83.50
68485;DHT22;55472;50.060;21.960;2024-02-14T09:22:58;6.80;83.60
68485;DHT22;55472;50.060;21.960;2024-02-14T09:25:24;6.70;83.90
68485;DHT22;55472;50.060;21.960;2024-02-14T09:27:51;6.70;83.70
68485;DHT22;55472;50.060;21.960;2024-02-14T09:30:18;6.70;84.00
68485;DHT22;55472;50.060;21.960;2024-02-14T09:32:45;6.60;83.90
68485;DHT22;55472;50.060;21.960;2024-02-14T09:35:11;6.60;83.90
68485;DHT22;55472;50.060;21.960;2024-02-14T09:37:37;6.60;85.00
68485;DHT22;55472;50.060;21.960;2024-02-14T09:40:06;6.60;84.80
68485;DHT22;55472;50.060;21.960;2024-02-14T09:42:44;6.70;85.90
68485;DHT22;55472;50.060;21.960;2024-02-14T09:45:27;6.70;85.90
68485;DHT22;55472;50.060;21.960;2024-02-14T09:47:54;6.80;85.20
68485;DHT22;55472;50.060;21.960;2024-02-14T09:50:21;6.90;84.90
68485;DHT22;55472;50.060;21.960;2024-02-14T09:52:50;7.10;84.00
68485;DHT22;55472;50.060;21.960;2024-02-14T09:55:17;7.30;83.20
68485;DHT22;55472;50.060;21.960;2024-02-14T09:57:44;7.50;82.20
68485;DHT22;55472;50.060;21.960;2024-02-14T10:00:12;7.70;79.90
68485;DHT22;55472;50.060;21.960;2024-02-14T10:02:42;7.90;78.30
68485;DHT22;55472;50.060;21.960;2024-02-14T10:05:08;8.10;73.30
68485;DHT22;55472;50.060;21.960;2024-02-14T10:07:44;8.10;73.80
68485;DHT22;55472;50.060;21.960;2024-02-14T10:10:11;8.20;73.30
68485;DHT22;55472;50.060;21.960;2024-02-14T10:12:37;8.10;72.40
68485;DHT22;55472;50.060;21.960;2024-02-14T10:15:06;8.00;72.20
68485;DHT22;55472;50.060;21.960;2024-02-14T10:17:34;7.80;70.20
68485;DHT22;55472;50.060;21.960;2024-02-14T10:20:01;7.60;71.00
68485;DHT22;55472;50.060;21.960;2024-02-14T10:22:41;7.40;70.10
68485;DHT22;55472;50.060;21.960;2024-02-14T10:25:07;7.20;71.80
68485;DHT22;55472;50.060;21.960;2024-02-14T10:27:38;7.10;72.30
68485;DHT22;55472;50.060;21.960;2024-02-14T10:30:08;7.00;72.80
68485;DHT22;55472;50.060;21.960;2024-02-14T10:32:44;6.90;72.80
68485;DHT22;55472;50.060;21.960;2024-02-14T10:35:13;6.70;71.80
68485;DHT22;55472;50.060;21.960;2024-02-14T10:37:41;6.70;72.60
68485;DHT22;55472;50.060;21.960;2024-02-14T10:40:08;6.70;73.20
68485;DHT22;55472;50.060;21.960;2024-02-14T10:42:37;6.60;72.80
68485;DHT22;55472;50.060;21.960;2024-02-14T10:45:04;6.60;73.20
68485;DHT22;55472;50.060;21.960;2024-02-14T10:47:36;6.60;73.80
68485;DHT22;55472;50.060;21.960;2024-02-14T10:50:07;6.50;73.80
68485;DHT22;55472;50.060;21.960;2024-02-14T10:52:36;6.50;72.30
68485;DHT22;55472;50.060;21.960;2024-02-14T10:55:07;6.50;72.10
68485;DHT22;55472;50.060;21.960;2024-02-14T10:57:33;6.50;71.90
68485;DHT22;55472;50.060;21.960;2024-02-14T11:00:06;6.50;72.00
68485;DHT22;55472;50.060;21.960;2024-02-14T11:02:36;6.50;71.80
68485;DHT22;55472;50.060;21.960;2024-02-14T11:05:02;6.60;70.90
68485;DHT22;55472;50.060;21.960;2024-02-14T11:07:47;6.60;71.50
68485;DHT22;55472;50.060;21.960;2024-02-14T11:13:12;6.70;70.90
68485;DHT22;55472;50.060;21.960;2024-02-14T11:15:40;6.70;70.80
68485;DHT22;55472;50.060;21.960;2024-02-14T11:18:50;6.80;70.60
68485;DHT22;55472;50.060;21.960;2024-02-14T11:21:43;6.90;70.00
68485;DHT22;55472;50.060;21.960;2024-02-14T11:27:52;7.20;69.20
68485;DHT22;55472;50.060;21.960;2024-02-14T11:30:40;7.40;68.40
68485;DHT22;55472;50.060;21.960;2024-02-14T11:35:43;7.70;66.90
68485;DHT22;55472;50.060;21.960;2024-02-14T11:38:10;7.70;67.30
68485;DHT22;55472;50.060;21.960;2024-02-14T11:40:38;7.90;67.80
68485;DHT22;55472;50.060;21.960;2024-02-14T11:43:10;7.90;66.70
68485;DHT22;55472;50.060;21.960;2024-02-14T11:45:38;8.00;66.60
68485;DHT22;55472;50.060;21.960;2024-02-14T11:48:13;8.00;66.00
68485;DHT22;55472;50.060;21.960;2024-02-14T11:50:40;8.00;65.60
68485;DHT22;55472;50.060;21.960;2024-02-14T11:53:13;8.10;66.00
68485;DHT22;55472;50.060;21.960;2024-02-14T11:55:42;8.10;66.40
68485;DHT22;55472;50.060;21.960;2024-02-14T11:58:09;8.10;66.30
68485;DHT22;55472;50.060;21.960;2024-02-14T12:00:40;8.00;66.40
68485;DHT22;55472;50.060;21.960;2024-02-14T12:03:10;8.00;66.10
68485;DHT22;55472;50.060;21.960;2024-02-14T12:05:38;7.90;65.70
68485;DHT22;55472;50.060;21.960;2024-02-14T12:08:06;7.90;66.50
68485;DHT22;55472;50.060;21.960;2024-02-14T12:10:34;7.80;66.70
68485;DHT22;55472;50.060;21.960;2024-02-14T12:13:11;7.80;67.20
68485;DHT22;55472;50.060;21.960;2024-02-14T12:15:45;7.70;66.50
68485;DHT22;55472;50.060;21.960;2024-02-14T12:18:12;7.60;65.70
68485;DHT22;55472;50.060;21.960;2024-02-14T12:20:42;7.50;67.00
68485;DHT22;55472;50.060;21.960;2024-02-14T12:23:18;7.60;67.00
68485;DHT22;55472;50.060;21.960;2024-02-14T12:25:45;7.50;67.00
68485;DHT22;55472;50.060;21.960;2024-02-14T12:28:19;7.50;67.10
68485;DHT22;55472;50.060;21.960;2024-02-14T12:30:48;7.40;67.40
68485;DHT22;55472;50.060;21.960;2024-02-14T12:33:26;7.40;67.70
68485;DHT22;55472;50.060;21.960;2024-02-14T12:35:56;7.50;67.90
68485;DHT22;55472;50.060;21.960;2024-02-14T12:38:24;7.50;67.50
68485;DHT22;55472;50.060;21.960;2024-02-14T12:40:50;7.50;67.00
68485;DHT22;55472;50.060;21.960;2024-02-14T12:43:19;7.50;65.60
68485;DHT22;55472;50.060;21.960;2024-02-14T12:45:46;7.40;66.70
68485;DHT22;55472;50.060;21.960;2024-02-14T12:48:14;7.40;67.30
68485;DHT22;55472;50.060;21.960;2024-02-14T12:50:48;7.40;68.10
68485;DHT22;55472;50.060;21.960;2024-02-14T12:53:15;7.30;66.10
68485;DHT22;55472;50.060;21.960;2024-02-14T12:55:41;7.30;67.70
68485;DHT22;55472;50.060;21.960;2024-02-14T12:58:07;7.20;67.20
68485;DHT22;55472;50.060;21.960;2024-02-14T13:00:35;7.10;68.00
68485;DHT22;55472;50.060;21.960;2024-02-14T13:03:01;7.20;67.70
68485;DHT22;55472;50.060;21.960;2024-02-14T13:05:28;7.20;68.10
68485;DHT22;55472;50.060;21.960;2024-02-14T13:07:54;7.20;67.40
68485;DHT22;55472;50.060;21.960;2024-02-14T13:10:21;7.20;68.50
68485;DHT22;55472;50.060;21.960;2024-02-14T13:12:47;7.20;68.30
68485;DHT22;55472;50.060;21.960;2024-02-14T13:15:14;7.40;68.50
68485;DHT22;55472;50.060;21.960;2024-02-14T13:17:40;7.60;67.90
68485;DHT22;55472;50.060;21.960;2024-02-14T13:20:06;7.80;67.00
68485;DHT22;55472;50.060;21.960;2024-02-14T13:22:33;8.20;65.90
68485;DHT22;55472;50.060;21.960;2024-02-14T13:25:00;8.50;64.60
68485;DHT22;55472;50.060;21.960;2024-02-14T13:27:30;8.90;63.40
68485;DHT22;55472;50.060;21.960;2024-02-14T13:29:56;9.30;62.10
68485;DHT22;55472;50.060;21.960;2024-02-14T13:32:22;9.60;60.20
68485;DHT22;55472;50.060;21.960;2024-02-14T13:34:49;9.90;59.60
68485;DHT22;55472;50.060;21.960;2024-02-14T13:37:15;10.10;58.90
68485;DHT22;55472;50.060;21.960;2024-02-14T13:39:41;10.40;58.70
68485;DHT22;55472;50.060;21.960;2024-02-14T13:42:07;10.60;56.30
68485;DHT22;55472;50.060;21.960;2024-02-14T13:44:34;10.80;57.00
68485;DHT22;55472;50.060;21.960;2024-02-14T13:47:00;10.90;56.50
68485;DHT22;55472;50.060;21.960;2024-02-14T13:49:26;11.00;55.90
68485;DHT22;55472;50.060;21.960;2024-02-14T13:51:53;11.00;56.30
68485;DHT22;55472;50.060;21.960;2024-02-14T13:54:21;11.10;56.60
68485;DHT22;55472;50.060;21.960;2024-02-14T13:56:48;11.10;56.40
68485;DHT22;55472;50.060;21.960;2024-02-14T13:59:15;11.20;56.20
68485;DHT22;55472;50.060;21.960;2024-02-14T14:01:41;11.20;56.10
68485;DHT22;55472;50.060;21.960;2024-02-14T14:04:08;11.30;55.50
68485;DHT22;55472;50.060;21.960;2024-02-14T14:06:34;11.30;55.50
68485;DHT22;55472;50.060;21.960;2024-02-14T14:09:01;11.40;55.40
68485;DHT22;55472;50.060;21.960;2024-02-14T14:11:31;11.40;55.50
68485;DHT22;55472;50.060;21.960;2024-02-14T14:13:57;11.50;54.90
68485;DHT22;55472;50.060;21.960;2024-02-14T14:16:23;11.50;54.20
68485;DHT22;55472;50.060;21.960;2024-02-14T14:18:51;11.50;53.60
68485;DHT22;55472;50.060;21.960;2024-02-14T14:21:17;11.50;53.70
68485;DHT22;55472;50.060;21.960;2024-02-14T14:23:46;11.40;54.60
68485;DHT22;55472;50.060;21.960;2024-02-14T14:26:12;11.40;55.20
68485;DHT22;55472;50.060;21.960;2024-02-14T14:28:39;11.20;54.60
68485;DHT22;55472;50.060;21.960;2024-02-14T14:31:05;11.10;55.40
68485;DHT22;55472;50.060;21.960;2024-02-14T14:33:32;11.00;56.00
68485;DHT22;55472;50.060;21.960;2024-02-14T14:35:58;11.10;55.80
68485;DHT22;55472;50.060;21.960;2024-02-14T14:38:24;11.00;56.10
68485;DHT22;55472;50.060;21.960;2024-02-14T14:40:52;11.00;56.50
68485;DHT22;55472;50.060;21.960;2024-02-14T14:43:21;10.90;55.30
68485;DHT22;55472;50.060;21.960;2024-02-14T14:45:47;10.90;56.00
68485;DHT22;55472;50.060;21.960;2024-02-14T14:48:15;10.80;55.00
68485;DHT22;55472;50.060;21.960;2024-02-14T14:50:41;10.70;55.50
68485;DHT22;55472;50.060;21.960;2024-02-14T14:53:07;10.50;56.20
68485;DHT22;55472;50.060;21.960;2024-02-14T14:55:57;10.30;57.60
68485;DHT22;55472;50.060;21.960;2024-02-14T14:58:24;10.30;58.20
68485;DHT22;55472;50.060;21.960;2024-02-14T15:00:58;10.10;58.80
68485;DHT22;55472;50.060;21.960;2024-02-14T15:03:25;10.00;59.20
68485;DHT22;55472;50.060;21.960;2024-02-14T15:05:53;9.80;59.50
68485;DHT22;55472;50.060;21.960;2024-02-14T15:08:23;9.50;59.50
68485;DHT22;55472;50.060;21.960;2024-02-14T15:10:52;9.20;60.50
68485;DHT22;55472;50.060;21.960;2024-02-14T15:13:19;8.80;61.00
68485;DHT22;55472;50.060;21.960;2024-02-14T15:15:45;8.30;61.90
68485;DHT22;55472;50.060;21.960;2024-02-14T15:18:11;7.90;63.00
68485;DHT22;55472;50.060;21.960;2024-02-14T15:20:37;7.50;63.50
68485;DHT22;55472;50.060;21.960;2024-02-14T15:23:04;7.30;63.90
68485;DHT22;55472;50.060;21.960;2024-02-14T15:25:30;7.00;64.90
68485;DHT22;55472;50.060;21.960;2024-02-14T15:27:57;6.80;65.80
68485;DHT22;55472;50.060;21.960;2024-02-14T15:30:24;6.60;66.90
68485;DHT22;55472;50.060;21.960;2024-02-14T15:33:09;6.50;67.30
68485;DHT22;55472;50.060;21.960;2024-02-14T15:35:54;6.30;68.10
68485;DHT22;55472;50.060;21.960;2024-02-14T15:38:23;6.10;68.30
68485;DHT22;55472;50.060;21.960;2024-02-14T15:40:53;6.00;69.00
68485;DHT22;55472;50.060;21.960;2024-02-14T15:43:24;5.90;69.60
68485;DHT22;55472;50.060;21.960;2024-02-14T15:45:50;5.80;69.30